createdAt,value
2018-09-17T00:00:30.353Z,9.53
2018-09-17T00:02:59.952Z,9.90
2018-09-17T00:05:28.745Z,10.53
2018-09-17T00:07:57.718Z,9.37
2018-09-17T00:10:27.297Z,11.07
2018-09-17T00:12:56.092Z,10.57
2018-09-17T00:15:24.906Z,10.17
2018-09-17T00:17:53.685Z,9.03
2018-09-17T00:20:22.817Z,7.77
2018-09-17T00:22:51.723Z,6.90
2018-09-17T00:25:20.533Z,7.13
2018-09-17T00:27:49.335Z,6.43
2018-09-17T00:30:18.138Z,6.57
2018-09-17T00:32:46.958Z,5.80
2018-09-17T00:35:16.330Z,5.03
2018-09-17T00:37:45.141Z,4.93
2018-09-17T00:40:13.957Z,5.17
2018-09-17T00:42:43.131Z,4.63
2018-09-17T00:45:11.985Z,5.00
2018-09-17T00:47:40.752Z,4.33
2018-09-17T00:50:09.540Z,4.40
2018-09-17T00:52:38.713Z,3.93
2018-09-17T00:55:07.564Z,4.60
2018-09-17T00:57:36.351Z,4.83
2018-09-17T01:00:05.144Z,4.53
2018-09-17T01:02:33.908Z,4.80
2018-09-17T01:05:02.891Z,3.77
2018-09-17T01:07:32.672Z,4.70
2018-09-17T01:10:01.428Z,4.80
2018-09-17T01:12:30.213Z,5.47
2018-09-17T01:14:59.357Z,4.50
2018-09-17T01:17:28.638Z,4.60
2018-09-17T01:19:57.530Z,4.23
2018-09-17T01:22:26.297Z,3.87
2018-09-17T01:24:55.073Z,3.97
2018-09-17T01:27:23.861Z,3.90
2018-09-17T01:29:53.045Z,3.83
2018-09-17T01:32:22.060Z,4.20
2018-09-17T01:34:51.205Z,3.90
2018-09-17T01:37:20.065Z,3.90
2018-09-17T01:39:49.217Z,4.30
2018-09-17T01:42:18.084Z,4.03
2018-09-17T01:44:46.880Z,4.30
2018-09-17T01:47:16.042Z,4.40
2018-09-17T01:49:44.957Z,5.17
2018-09-17T01:52:13.707Z,5.00
2018-09-17T01:54:42.851Z,4.80
2018-09-17T01:57:11.886Z,4.60
2018-09-17T01:59:43.346Z,5.17
2018-09-17T02:02:12.953Z,5.43
2018-09-17T02:04:43.040Z,6.70
2018-09-17T02:07:11.868Z,5.43
2018-09-17T02:09:41.778Z,5.17
2018-09-17T02:12:12.109Z,4.70
2018-09-17T02:14:41.842Z,5.47
2018-09-17T02:17:10.748Z,5.00
2018-09-17T02:19:39.730Z,5.63
2018-09-17T02:22:09.428Z,4.60
2018-09-17T02:24:38.724Z,4.63
2018-09-17T02:27:07.637Z,4.63
2018-09-17T02:29:36.867Z,4.57
2018-09-17T02:32:05.945Z,4.07
2018-09-17T02:34:34.729Z,4.33
2018-09-17T02:37:03.484Z,4.20
2018-09-17T02:39:32.702Z,4.67
2018-09-17T02:42:01.574Z,4.80
2018-09-17T02:44:30.397Z,5.33
2018-09-17T02:46:59.561Z,4.87
2018-09-17T02:49:28.424Z,4.60
2018-09-17T02:51:57.569Z,5.37
2018-09-17T02:54:26.438Z,5.20
2018-09-17T02:56:55.237Z,4.17
2018-09-17T02:59:24.452Z,5.30
2018-09-17T03:01:53.320Z,5.87
2018-09-17T03:04:22.144Z,6.60
2018-09-17T03:06:50.901Z,7.57
2018-09-17T03:09:20.772Z,6.83
2018-09-17T03:11:49.564Z,8.90
2018-09-17T03:14:24.497Z,7.73
2018-09-17T03:16:58.684Z,8.00
2018-09-17T03:19:27.922Z,7.73
2018-09-17T03:21:56.784Z,7.83
2018-09-17T03:24:25.615Z,8.40
2018-09-17T03:26:54.368Z,7.57
2018-09-17T03:29:24.074Z,8.23
2018-09-17T03:31:53.059Z,8.83
2018-09-17T03:34:23.048Z,7.10
2018-09-17T03:36:52.255Z,6.00
2018-09-17T03:39:21.171Z,6.60
2018-09-17T03:41:51.256Z,6.50
2018-09-17T03:44:20.132Z,6.27
2018-09-17T03:46:49.352Z,6.23
2018-09-17T03:49:18.168Z,6.63
2018-09-17T03:51:47.327Z,6.23
2018-09-17T03:54:16.197Z,6.43
2018-09-17T03:56:44.947Z,5.70
2018-09-17T03:59:14.137Z,5.60
2018-09-17T04:01:43.409Z,5.97
2018-09-17T04:04:12.308Z,6.30
2018-09-17T04:06:42.383Z,7.27
2018-09-17T04:09:11.219Z,6.50
2018-09-17T04:11:40.361Z,6.93
2018-09-17T04:14:09.220Z,6.47
2018-09-17T04:16:38.507Z,7.37
2018-09-17T04:19:07.382Z,6.53
2018-09-17T04:21:36.148Z,6.93
2018-09-17T04:24:05.333Z,5.70
2018-09-17T04:26:34.212Z,5.70
2018-09-17T04:29:02.996Z,6.83
2018-09-17T04:31:31.828Z,7.10
2018-09-17T04:34:00.584Z,7.80
2018-09-17T04:36:29.747Z,7.53
2018-09-17T04:38:58.576Z,6.87
2018-09-17T04:41:28.568Z,7.20
2018-09-17T04:43:57.436Z,7.30
2018-09-17T04:46:26.757Z,7.67
2018-09-17T04:48:56.017Z,7.20
2018-09-17T04:51:25.241Z,8.00
2018-09-17T04:53:54.237Z,7.67
2018-09-17T04:56:23.364Z,7.77
2018-09-17T04:58:52.590Z,8.77
2018-09-17T05:01:21.508Z,7.87
2018-09-17T05:03:50.940Z,6.63
2018-09-17T05:06:20.089Z,7.23
2018-09-17T05:08:48.979Z,8.03
2018-09-17T05:11:18.524Z,9.17
2018-09-17T05:13:47.852Z,7.03
2018-09-17T05:16:16.744Z,7.50
2018-09-17T05:18:45.887Z,6.93
2018-09-17T05:21:14.740Z,7.83
2018-09-17T05:23:43.556Z,7.93
2018-09-17T05:26:12.772Z,7.20
2018-09-17T05:28:41.591Z,8.10
2018-09-17T05:31:10.377Z,7.10
2018-09-17T05:33:39.509Z,7.30
2018-09-17T05:36:08.758Z,6.90
2018-09-17T05:38:37.665Z,7.57
2018-09-17T05:41:06.453Z,8.37
2018-09-17T05:43:35.242Z,8.80
2018-09-17T05:46:04.408Z,7.17
2018-09-17T05:48:34.169Z,7.90
2018-09-17T05:51:03.078Z,8.90
2018-09-17T05:53:32.248Z,9.70
2018-09-17T05:56:02.109Z,10.10
2018-09-17T05:58:31.013Z,11.13
2018-09-17T06:01:00.238Z,10.50
2018-09-17T06:03:29.112Z,12.40
2018-09-17T06:05:57.889Z,11.20
2018-09-17T06:08:27.050Z,11.50
2018-09-17T06:10:55.969Z,9.30
2018-09-17T06:13:25.077Z,7.90
2018-09-17T06:15:53.952Z,7.17
2018-09-17T06:18:23.114Z,7.67
2018-09-17T06:20:51.993Z,6.70
2018-09-17T06:23:20.791Z,5.30
2018-09-17T06:25:52.840Z,5.83
2018-09-17T06:28:21.764Z,4.33
2018-09-17T06:30:50.532Z,4.40
2018-09-17T06:33:19.341Z,4.37
2018-09-17T06:35:48.116Z,4.00
2018-09-17T06:38:16.880Z,4.10
2018-09-17T06:40:45.700Z,3.83
2018-09-17T06:43:14.897Z,2.93
2018-09-17T06:45:43.818Z,4.00
2018-09-17T06:48:12.659Z,3.60
2018-09-17T06:50:41.436Z,3.30
2018-09-17T06:53:10.268Z,3.20
2018-09-17T06:55:39.105Z,2.80
2018-09-17T06:58:07.873Z,2.70
2018-09-17T07:00:36.824Z,2.97
2018-09-17T07:03:06.061Z,2.50
2018-09-17T07:05:34.912Z,2.37
2018-09-17T07:08:03.705Z,2.90
2018-09-17T07:10:32.501Z,2.47
2018-09-17T07:13:01.317Z,2.93
2018-09-17T07:15:30.129Z,2.20
2018-09-17T07:17:59.022Z,2.53
2018-09-17T07:20:27.760Z,2.00
2018-09-17T07:22:56.585Z,2.10
2018-09-17T07:25:25.457Z,1.73
2018-09-17T07:27:54.228Z,2.30
2018-09-17T07:30:23.029Z,1.90
2018-09-17T07:32:51.904Z,2.13
2018-09-17T07:35:21.134Z,2.07
2018-09-17T07:37:50.032Z,2.07
2018-09-17T07:40:18.844Z,2.37
2018-09-17T07:42:47.613Z,3.13
2018-09-17T07:45:16.436Z,3.07
2018-09-17T07:47:45.332Z,3.60
2018-09-17T07:50:14.052Z,2.70
2018-09-17T07:52:43.657Z,2.30
2018-09-17T07:55:15.837Z,2.40
2018-09-17T07:57:44.771Z,2.60
2018-09-17T08:00:13.595Z,2.13
2018-09-17T08:02:43.253Z,2.13
2018-09-17T08:05:12.117Z,2.20
2018-09-17T08:07:40.900Z,2.03
2018-09-17T08:10:10.206Z,2.37
2018-09-17T08:12:39.122Z,1.80
2018-09-17T08:15:07.935Z,2.23
2018-09-17T08:17:36.710Z,1.70
2018-09-17T08:20:05.537Z,2.17
2018-09-17T08:22:34.381Z,1.90
2018-09-17T08:25:03.176Z,2.17
2018-09-17T08:27:31.939Z,1.80
2018-09-17T08:30:00.752Z,2.40
2018-09-17T08:32:29.504Z,2.27
2018-09-17T08:34:58.313Z,2.37
2018-09-17T08:37:27.093Z,1.87
2018-09-17T08:39:55.885Z,2.00
2018-09-17T08:42:24.740Z,2.40
2018-09-17T08:44:53.560Z,2.37
2018-09-17T08:47:22.344Z,2.27
2018-09-17T08:49:51.440Z,2.47
2018-09-17T08:52:20.254Z,2.70
2018-09-17T08:54:55.222Z,3.00
2018-09-17T08:57:29.272Z,2.30
2018-09-17T09:00:03.340Z,1.90
2018-09-17T09:02:37.503Z,2.70
2018-09-17T09:05:18.952Z,2.63
2018-09-17T09:07:54.844Z,2.60
2018-09-17T09:10:29.273Z,2.67
2018-09-17T09:13:03.444Z,2.40
2018-09-17T09:15:37.480Z,1.93
2018-09-17T09:18:07.017Z,2.40
2018-09-17T09:20:36.383Z,2.67
2018-09-17T09:23:05.400Z,2.30
2018-09-17T09:25:42.928Z,1.80
2018-09-17T09:28:11.744Z,1.47
2018-09-17T09:30:40.671Z,1.87
2018-09-17T09:33:09.502Z,1.30
2018-09-17T09:35:38.662Z,1.50
2018-09-17T09:38:07.529Z,1.90
2018-09-17T09:40:36.360Z,1.47
2018-09-17T09:43:05.196Z,1.40
2018-09-17T09:45:34.036Z,1.27
2018-09-17T09:48:05.816Z,1.33
2018-09-17T09:50:34.602Z,1.20
2018-09-17T09:53:03.428Z,1.33
2018-09-17T09:55:32.601Z,1.50
2018-09-17T09:58:01.538Z,1.53
2018-09-17T10:00:36.029Z,1.60
2018-09-17T10:03:10.237Z,1.50
2018-09-17T10:05:39.097Z,1.53
2018-09-17T10:08:08.284Z,1.63
2018-09-17T10:10:42.611Z,2.07
2018-09-17T10:13:16.809Z,1.63
2018-09-17T10:15:50.463Z,1.70
2018-09-17T10:18:25.004Z,1.80
2018-09-17T10:20:55.424Z,1.90
2018-09-17T10:23:24.200Z,1.83
2018-09-17T10:25:53.984Z,1.97
2018-09-17T10:28:22.932Z,1.60
2018-09-17T10:30:51.694Z,2.47
2018-09-17T10:33:20.752Z,2.60
2018-09-17T10:35:49.544Z,2.10
2018-09-17T10:38:18.698Z,1.87
2018-09-17T10:40:47.573Z,2.20
2018-09-17T10:43:16.781Z,2.25
2018-09-17T10:45:45.625Z,2.47
2018-09-17T10:48:14.420Z,2.10
2018-09-17T10:50:43.564Z,1.52
2018-09-17T10:53:12.424Z,1.57
2018-09-17T10:55:41.252Z,1.35
2018-09-17T10:58:10.021Z,2.10
2018-09-17T11:00:38.804Z,2.15
2018-09-17T11:03:08.020Z,1.50
2018-09-17T11:05:36.905Z,1.52
2018-09-17T11:08:05.724Z,1.85
2018-09-17T11:10:34.540Z,1.40
2018-09-17T11:13:03.365Z,1.40
2018-09-17T11:15:37.417Z,1.70
2018-09-17T11:18:06.333Z,1.57
2018-09-17T11:20:35.085Z,1.65
2018-09-17T11:23:03.916Z,1.15
2018-09-17T11:25:33.073Z,1.72
2018-09-17T11:28:01.993Z,1.52
2018-09-17T11:30:30.802Z,1.32
2018-09-17T11:33:00.624Z,1.07
2018-09-17T11:35:29.520Z,1.40
2018-09-17T11:37:58.264Z,1.25
2018-09-17T11:40:27.358Z,1.60
2018-09-17T11:42:56.180Z,1.45
2018-09-17T11:45:25.023Z,1.20
2018-09-17T11:47:53.844Z,1.12
2018-09-17T11:50:22.625Z,1.50
2018-09-17T11:52:51.544Z,1.37
2018-09-17T11:55:20.340Z,1.30
2018-09-17T11:57:49.105Z,1.10
2018-09-17T12:00:23.365Z,1.07
2018-09-17T12:02:57.293Z,1.40
2018-09-17T12:05:31.811Z,1.50
2018-09-17T12:08:00.678Z,1.40
2018-09-17T12:10:29.483Z,1.07
2018-09-17T12:12:58.273Z,1.25
2018-09-17T12:15:27.096Z,1.30
2018-09-17T12:17:55.857Z,1.20
2018-09-17T12:20:24.609Z,1.40
2018-09-17T12:22:53.430Z,1.50
2018-09-17T12:25:22.184Z,1.40
2018-09-17T12:27:50.985Z,1.50
2018-09-17T12:30:19.774Z,1.30
2018-09-17T12:32:48.600Z,1.47
2018-09-17T12:35:17.392Z,1.55
2018-09-17T12:37:46.248Z,1.20
2018-09-17T12:40:15.076Z,1.52
2018-09-17T12:42:44.016Z,1.27
2018-09-17T12:45:12.822Z,1.40
2018-09-17T12:47:41.603Z,1.30
2018-09-17T12:50:10.426Z,1.42
2018-09-17T12:52:39.289Z,1.20
2018-09-17T12:55:08.117Z,1.20
2018-09-17T12:57:36.957Z,1.30
2018-09-17T13:00:07.030Z,1.45
2018-09-17T13:02:35.884Z,1.17
2018-09-17T13:05:05.321Z,1.20
2018-09-17T13:07:34.557Z,1.42
2018-09-17T13:10:03.499Z,1.50
2018-09-17T13:12:32.316Z,1.37
2018-09-17T13:15:01.120Z,1.32
2018-09-17T13:17:29.951Z,1.40
2018-09-17T13:19:58.801Z,1.40
2018-09-17T13:22:27.974Z,1.37
2018-09-17T13:24:56.895Z,1.65
2018-09-17T13:27:25.978Z,2.08
2018-09-17T13:29:55.095Z,1.67
2018-09-17T13:32:25.012Z,2.00
2018-09-17T13:34:53.904Z,1.85
2018-09-17T13:37:22.763Z,1.72
2018-09-17T13:39:51.572Z,1.72
2018-09-17T13:42:20.322Z,1.50
2018-09-17T13:44:49.128Z,1.57
2018-09-17T13:47:17.900Z,1.80
2018-09-17T13:49:47.052Z,1.45
2018-09-17T13:52:16.362Z,1.77
2018-09-17T13:54:45.169Z,1.57
2018-09-17T13:57:13.950Z,1.40
2018-09-17T13:59:43.381Z,1.57
2018-09-17T14:02:12.324Z,2.00
2018-09-17T14:04:41.111Z,1.62
2018-09-17T14:07:09.876Z,1.92
2018-09-17T14:09:38.722Z,1.52
2018-09-17T14:12:07.529Z,1.35
2018-09-17T14:14:36.717Z,2.00
2018-09-17T14:17:05.660Z,1.42
2018-09-17T14:19:34.815Z,1.30
2018-09-17T14:22:04.348Z,1.30
2018-09-17T14:24:34.013Z,1.37
2018-09-17T14:27:03.137Z,1.20
2018-09-17T14:29:32.252Z,1.15
2018-09-17T14:32:06.400Z,1.30
2018-09-17T14:34:36.114Z,1.60
2018-09-17T14:37:05.024Z,1.57
2018-09-17T14:39:33.875Z,1.40
2018-09-17T14:42:02.704Z,1.30
2018-09-17T14:44:31.615Z,1.85
2018-09-17T14:47:00.739Z,1.65
2018-09-17T14:49:29.670Z,1.62
2018-09-17T14:51:58.543Z,1.27
2018-09-17T14:54:27.406Z,2.00
2018-09-17T14:56:56.111Z,1.67
2018-09-17T14:59:25.357Z,1.80
2018-09-17T15:01:54.213Z,1.92
2018-09-17T15:04:23.892Z,1.72
2018-09-17T15:06:53.142Z,1.60
2018-09-17T15:09:22.287Z,1.80
2018-09-17T15:11:51.184Z,2.00
2018-09-17T15:14:20.461Z,2.30
2018-09-17T15:16:49.343Z,2.40
2018-09-17T15:19:18.488Z,1.95
2018-09-17T15:21:47.367Z,1.50
2018-09-17T15:24:16.127Z,2.12
2018-09-17T15:26:45.265Z,2.20
2018-09-17T15:29:14.574Z,2.58
2018-09-17T15:31:43.480Z,1.80
2018-09-17T15:34:15.532Z,2.20
2018-09-17T15:36:44.600Z,2.05
2018-09-17T15:39:14.357Z,2.58
2018-09-17T15:41:43.307Z,1.80
2018-09-17T15:44:12.165Z,1.50
2018-09-17T15:46:41.064Z,2.10
2018-09-17T15:49:10.153Z,1.90
2018-09-17T15:51:39.015Z,2.10
2018-09-17T15:54:07.798Z,2.05
2018-09-17T15:56:36.979Z,2.10
2018-09-17T15:59:06.284Z,2.17
2018-09-17T16:01:35.189Z,2.20
2018-09-17T16:04:03.954Z,2.22
2018-09-17T16:06:32.735Z,2.40
2018-09-17T16:09:01.492Z,1.92
2018-09-17T16:11:30.424Z,1.55
2018-09-17T16:13:59.226Z,2.33
2018-09-17T16:16:28.021Z,2.33
2018-09-17T16:18:56.807Z,2.00
2018-09-17T16:21:25.570Z,2.20
2018-09-17T16:23:54.372Z,2.10
2018-09-17T16:26:23.149Z,1.83
2018-09-17T16:28:51.921Z,1.93
2018-09-17T16:31:20.724Z,1.77
2018-09-17T16:33:49.597Z,1.97
2018-09-17T16:36:18.372Z,1.90
2018-09-17T16:38:47.232Z,1.40
2018-09-17T16:41:16.068Z,1.50
2018-09-17T16:43:44.843Z,1.80
2018-09-17T16:46:13.676Z,2.10
2018-09-17T16:48:42.512Z,1.90
2018-09-17T16:51:14.145Z,1.70
2018-09-17T16:53:43.100Z,1.90
2018-09-17T16:56:12.221Z,1.90
2018-09-17T16:58:41.130Z,2.10
2018-09-17T17:01:09.899Z,1.90
2018-09-17T17:03:39.188Z,1.70
2018-09-17T17:06:08.329Z,2.00
2018-09-17T17:08:37.205Z,1.67
2018-09-17T17:11:06.796Z,1.87
2018-09-17T17:13:35.704Z,1.50
2018-09-17T17:16:11.138Z,1.70
2018-09-17T17:18:40.376Z,1.73
2018-09-17T17:21:09.524Z,1.80
2018-09-17T17:23:38.903Z,1.77
2018-09-17T17:26:07.772Z,1.80
2018-09-17T17:28:36.593Z,2.20
2018-09-17T17:31:05.420Z,2.07
2018-09-17T17:33:34.162Z,2.17
2018-09-17T17:36:03.000Z,1.67
2018-09-17T17:38:32.193Z,1.80
2018-09-17T17:41:01.111Z,2.00
2018-09-17T17:43:29.864Z,1.90
2018-09-17T17:45:58.809Z,1.93
2018-09-17T17:48:27.600Z,1.90
2018-09-17T17:50:59.297Z,2.00
2018-09-17T17:53:28.111Z,2.33
2018-09-17T17:55:56.877Z,2.07
2018-09-17T17:58:26.124Z,2.47
2018-09-17T18:00:55.395Z,2.20
2018-09-17T18:03:27.991Z,2.03
2018-09-17T18:05:57.694Z,2.17
2018-09-17T18:08:26.460Z,2.43
2018-09-17T18:10:55.618Z,2.33
2018-09-17T18:13:24.937Z,2.30
2018-09-17T18:15:55.017Z,2.20
2018-09-17T18:18:23.764Z,2.93
2018-09-17T18:20:53.488Z,2.80
2018-09-17T18:23:22.809Z,2.90
2018-09-17T18:25:51.625Z,2.40
2018-09-17T18:28:20.433Z,2.40
2018-09-17T18:30:49.574Z,2.70
2018-09-17T18:33:18.547Z,3.10
2018-09-17T18:35:47.795Z,2.60
2018-09-17T18:38:16.664Z,2.87
2018-09-17T18:40:45.735Z,2.70
2018-09-17T18:43:14.604Z,2.50
2018-09-17T18:45:43.846Z,2.67
2018-09-17T18:48:13.191Z,2.90
2018-09-17T18:50:42.042Z,2.63
2018-09-17T18:53:11.209Z,2.87
2018-09-17T18:55:40.135Z,3.20
2018-09-17T18:58:08.913Z,3.20
2018-09-17T19:00:37.692Z,3.20
2018-09-17T19:03:06.950Z,3.20
2018-09-17T19:05:35.728Z,3.37
2018-09-17T19:08:04.573Z,3.50
2018-09-17T19:10:33.439Z,3.00
2018-09-17T19:13:02.232Z,3.00
2018-09-17T19:15:36.429Z,3.00
2018-09-17T19:18:11.343Z,2.90
2018-09-17T19:20:40.768Z,2.73
2018-09-17T19:23:15.091Z,2.70
2018-09-17T19:25:45.095Z,2.73
2018-09-17T19:28:19.338Z,2.60
2018-09-17T19:30:50.058Z,2.90
2018-09-17T19:33:18.950Z,2.43
2018-09-17T19:35:49.336Z,2.70
2018-09-17T19:38:23.974Z,2.43
2018-09-17T19:40:52.765Z,2.30
2018-09-17T19:43:22.926Z,2.30
2018-09-17T19:45:57.523Z,2.20
2018-09-17T19:48:26.359Z,2.10
2018-09-17T19:51:01.847Z,2.23
2018-09-17T19:53:31.047Z,2.10
2018-09-17T19:55:59.837Z,2.17
2018-09-17T19:58:34.284Z,2.20
2018-09-17T20:01:03.558Z,2.00
2018-09-17T20:03:33.297Z,2.30
2018-09-17T20:06:07.592Z,2.73
2018-09-17T20:08:36.412Z,2.03
2018-09-17T20:11:06.662Z,2.00
2018-09-17T20:13:35.617Z,2.00
2018-09-17T20:16:04.441Z,2.30
2018-09-17T20:18:33.724Z,2.10
2018-09-17T20:21:04.090Z,2.50
2018-09-17T20:23:33.353Z,2.60
2018-09-17T20:26:02.979Z,1.97
2018-09-17T20:28:31.913Z,1.87
2018-09-17T20:31:02.095Z,1.97
2018-09-17T20:33:32.590Z,2.00
2018-09-17T20:36:01.749Z,2.00
2018-09-17T20:38:30.743Z,2.00
2018-09-17T20:41:00.017Z,2.20
2018-09-17T20:43:28.805Z,2.00
2018-09-17T20:45:57.871Z,2.10
2018-09-17T20:48:26.774Z,3.97
2018-09-17T20:50:55.618Z,2.30
2018-09-17T20:53:24.782Z,2.97
2018-09-17T20:55:54.216Z,2.13
2018-09-17T20:58:23.860Z,2.30
2018-09-17T21:00:53.885Z,2.30
2018-09-17T21:03:22.640Z,2.50
2018-09-17T21:05:51.433Z,2.43
2018-09-17T21:08:20.961Z,2.37
2018-09-17T21:10:49.821Z,3.00
2018-09-17T21:13:18.667Z,2.30
2018-09-17T21:15:47.484Z,2.70
2018-09-17T21:18:16.230Z,2.43
2018-09-17T21:20:45.061Z,2.20
2018-09-17T21:23:13.917Z,2.57
2018-09-17T21:25:42.729Z,2.43
2018-09-17T21:28:11.564Z,2.67
2018-09-17T21:30:40.402Z,2.40
2018-09-17T21:33:09.532Z,2.30
2018-09-17T21:35:38.525Z,2.50
2018-09-17T21:38:07.764Z,2.43
2018-09-17T21:40:36.595Z,2.30
2018-09-17T21:43:06.802Z,3.77
2018-09-17T21:45:35.969Z,2.60
2018-09-17T21:48:06.589Z,2.40
2018-09-17T21:50:35.363Z,2.10
2018-09-17T21:53:06.275Z,2.43
2018-09-17T21:55:35.163Z,2.60
2018-09-17T21:58:05.413Z,2.80
2018-09-17T22:00:39.366Z,2.17
2018-09-17T22:03:11.796Z,2.13
2018-09-17T22:05:40.672Z,2.07
2018-09-17T22:08:11.406Z,2.70
2018-09-17T22:10:40.268Z,2.70
2018-09-17T22:13:10.100Z,2.00
2018-09-17T22:15:38.880Z,2.07
2018-09-17T22:18:09.032Z,2.17
2018-09-17T22:20:38.230Z,2.13
2018-09-17T22:23:07.230Z,2.10
2018-09-17T22:25:36.472Z,1.97
2018-09-17T22:28:05.306Z,2.40
2018-09-17T22:30:34.849Z,2.20
2018-09-17T22:33:03.691Z,2.00
2018-09-17T22:35:32.967Z,2.50
2018-09-17T22:38:01.840Z,1.70
2018-09-17T22:40:30.620Z,2.10
2018-09-17T22:42:59.799Z,2.13
2018-09-17T22:45:28.708Z,2.47
2018-09-17T22:47:57.488Z,2.30
2018-09-17T22:50:26.312Z,2.17
2018-09-17T22:52:55.143Z,2.07
2018-09-17T22:55:24.260Z,2.37
2018-09-17T22:57:53.131Z,1.93
2018-09-17T23:00:21.956Z,2.40
2018-09-17T23:02:50.768Z,2.03
2018-09-17T23:05:20.853Z,1.80
2018-09-17T23:07:49.888Z,1.77
2018-09-17T23:10:19.173Z,2.33
2018-09-17T23:12:47.936Z,2.77
2018-09-17T23:15:17.666Z,2.00
2018-09-17T23:17:46.477Z,1.80
2018-09-17T23:20:15.879Z,2.40
2018-09-17T23:22:45.706Z,2.43
2018-09-17T23:25:14.575Z,2.33
2018-09-17T23:27:43.547Z,2.13
2018-09-17T23:30:13.065Z,2.43
2018-09-17T23:32:41.856Z,2.50
2018-09-17T23:35:11.041Z,2.13
2018-09-17T23:37:39.976Z,2.53
2018-09-17T23:40:08.790Z,2.30
2018-09-17T23:42:37.604Z,2.47
2018-09-17T23:45:06.408Z,2.60
2018-09-17T23:47:35.584Z,2.50
2018-09-17T23:50:04.492Z,2.60
2018-09-17T23:52:33.284Z,3.27
2018-09-17T23:55:02.447Z,2.43
2018-09-17T23:57:31.309Z,2.37
